Time;durP1;ratioP1;P1;durP2;ratioP2;P2;SDS_P1;SDS_P2;PMS_P1;PMS_P2;Temp;Humidity;BMP_temperature;BMP_pressure;BME280_temperature;BME280_humidity;BME280_pressure;Samples;Min_cycle;Max_cycle;Signal;HPM_P1;HPM_P2
2023/11/14 00:00:04;;;;;;;44.75;7.80;;;12.60;91.70;;;;;;5025896;28;20573;-74
2023/11/14 00:02:31;;;;;;;44.70;8.43;;;12.60;91.70;;;;;;5026634;28;20033;-77
2023/11/14 00:04:57;;;;;;;36.83;8.20;;;12.70;91.70;;;;;;5027293;28;20068;-74
2023/11/14 00:07:22;;;;;;;43.00;8.63;;;12.70;91.50;;;;;;5024232;28;20057;-78
2023/11/14 00:09:48;;;;;;;38.72;7.63;;;12.70;91.40;;;;;;5025065;28;20044;-77
2023/11/14 00:12:14;;;;;;;40.88;8.00;;;12.70;91.30;;;;;;5026805;28;20025;-76
2023/11/14 00:14:44;;;;;;;42.35;8.93;;;12.70;91.40;;;;;;5020194;28;20080;-79
2023/11/14 00:17:10;;;;;;;37.67;8.35;;;12.70;91.40;;;;;;5024112;28;20029;-78
2023/11/14 00:19:35;;;;;;;34.28;6.93;;;12.70;91.50;;;;;;5022378;28;20040;-76
2023/11/14 00:22:01;;;;;;;39.47;7.25;;;12.70;91.40;;;;;;5026442;28;20489;-79
2023/11/14 00:24:28;;;;;;;36.05;8.18;;;12.80;91.30;;;;;;5021612;28;20497;-79
2023/11/14 00:26:56;;;;;;;39.13;7.72;;;12.80;91.20;;;;;;5026015;28;20091;-77
2023/11/14 00:29:22;;;;;;;51.10;9.23;;;12.80;91.20;;;;;;5024665;28;20486;-78
2023/11/14 00:31:47;;;;;;;43.03;7.75;;;12.80;91.10;;;;;;5023503;28;20053;-75
2023/11/14 00:34:14;;;;;;;37.72;7.90;;;12.80;91.10;;;;;;5025617;28;20048;-75
2023/11/14 00:36:41;;;;;;;32.33;6.90;;;12.90;90.90;;;;;;5025482;28;20117;-74
2023/11/14 00:39:08;;;;;;;44.70;10.23;;;12.90;90.70;;;;;;5028944;28;20041;-73
2023/11/14 00:41:35;;;;;;;45.17;8.85;;;12.90;90.80;;;;;;5024281;28;20034;-74
2023/11/14 00:44:02;;;;;;;37.08;6.72;;;12.90;90.80;;;;;;5024734;28;20061;-75
2023/11/14 00:46:28;;;;;;;36.15;7.13;;;12.90;90.70;;;;;;5024342;28;20036;-75
2023/11/14 00:48:54;;;;;;;38.90;8.85;;;12.90;90.80;;;;;;5021356;28;20033;-76
2023/11/14 00:51:19;;;;;;;36.47;7.88;;;12.90;90.90;;;;;;5027348;28;20060;-77
2023/11/14 00:53:45;;;;;;;40.85;7.85;;;13.00;90.80;;;;;;5024165;28;20111;-76
2023/11/14 00:56:11;;;;;;;38.97;8.27;;;12.90;90.80;;;;;;5021683;28;20490;-76
2023/11/14 00:58:38;;;;;;;38.42;6.75;;;12.90;91.00;;;;;;5025151;28;20639;-79
2023/11/14 01:01:04;;;;;;;38.35;8.02;;;12.90;91.00;;;;;;5022520;28;20041;-77
2023/11/14 01:03:30;;;;;;;40.63;8.18;;;12.90;90.90;;;;;;5024313;28;20115;-77
2023/11/14 01:05:55;;;;;;;37.58;8.73;;;12.90;91.00;;;;;;5023256;28;20034;-77
2023/11/14 01:08:21;;;;;;;36.38;8.10;;;12.90;90.90;;;;;;5022870;28;20446;-73
2023/11/14 01:10:47;;;;;;;33.88;7.53;;;12.90;90.90;;;;;;5025804;28;20053;-77
2023/11/14 01:13:13;;;;;;;36.17;7.72;;;12.90;90.90;;;;;;5021208;28;20029;-76
2023/11/14 01:15:39;;;;;;;41.40;7.90;;;12.90;91.00;;;;;;5023984;28;20034;-79
2023/11/14 01:18:05;;;;;;;33.28;8.63;;;12.90;91.00;;;;;;5024732;28;20072;-80
2023/11/14 01:20:31;;;;;;;43.40;9.40;;;12.80;91.20;;;;;;5024743;28;20065;-73
2023/11/14 01:22:57;;;;;;;39.00;7.95;;;12.80;91.20;;;;;;5024869;28;20103;-79
2023/11/14 01:25:23;;;;;;;48.53;8.65;;;12.80;91.30;;;;;;5023649;28;20049;-76
2023/11/14 01:27:49;;;;;;;34.72;7.60;;;12.80;91.40;;;;;;5023866;28;20462;-80
2023/11/14 01:30:15;;;;;;;33.03;7.75;;;12.80;91.60;;;;;;5024214;28;20134;-78
2023/11/14 01:32:40;;;;;;;41.25;7.93;;;12.80;91.70;;;;;;5021336;28;20037;-76
2023/11/14 01:35:06;;;;;;;44.40;8.05;;;12.80;91.70;;;;;;5021246;28;20087;-79
2023/11/14 01:37:32;;;;;;;34.72;7.88;;;12.80;91.80;;;;;;5022429;28;20026;-75
2023/11/14 01:39:58;;;;;;;41.35;7.60;;;12.80;91.80;;;;;;5027936;28;20125;-80
2023/11/14 01:42:24;;;;;;;36.90;7.65;;;12.70;91.80;;;;;;5023730;28;20367;-80
2023/11/14 01:44:50;;;;;;;38.90;8.52;;;12.70;92.10;;;;;;5024908;28;20047;-76
2023/11/14 01:47:16;;;;;;;35.78;7.70;;;12.80;92.10;;;;;;5022977;28;20116;-75
2023/11/14 01:49:42;;;;;;;45.05;8.43;;;12.70;92.20;;;;;;5040855;28;20048;-78
2023/11/14 01:52:10;;;;;;;34.00;7.60;;;12.80;92.40;;;;;;5022857;28;20037;-74
2023/11/14 01:54:37;;;;;;;34.70;8.02;;;12.80;92.50;;;;;;5024110;28;20081;-77
2023/11/14 01:57:04;;;;;;;37.50;7.97;;;12.70;92.60;;;;;;5021776;28;20117;-76
2023/11/14 01:59:30;;;;;;;43.92;8.38;;;12.70;93.00;;;;;;5023185;28;20395;-80
2023/11/14 02:01:57;;;;;;;39.28;7.32;;;12.70;93.00;;;;;;5021321;28;20029;-76
2023/11/14 02:04:25;;;;;;;40.38;9.93;;;12.60;93.10;;;;;;5026038;28;20383;-75
2023/11/14 02:06:52;;;;;;;34.55;8.07;;;12.60;93.10;;;;;;5023376;28;20041;-75
2023/11/14 02:09:18;;;;;;;32.90;7.30;;;12.60;93.10;;;;;;5024045;28;20048;-76
2023/11/14 02:11:44;;;;;;;40.05;8.23;;;12.60;93.00;;;;;;5022097;28;20611;-73
2023/11/14 02:14:13;;;;;;;29.08;6.20;;;12.50;93.00;;;;;;5023939;28;20025;-75
2023/11/14 02:16:50;;;;;;;39.72;7.47;;;12.40;93.20;;;;;;5022090;28;20509;-75
2023/11/14 02:19:16;;;;;;;39.85;6.40;;;12.40;93.40;;;;;;5024206;28;20269;-76
2023/11/14 02:21:42;;;;;;;34.97;8.00;;;12.40;93.60;;;;;;5020859;28;20343;-74
2023/11/14 02:24:28;;;;;;;36.45;7.25;;;12.40;93.70;;;;;;5023081;28;20103;-76
2023/11/14 02:26:53;;;;;;;25.15;6.25;;;12.30;93.70;;;;;;5023786;28;20038;-75
2023/11/14 02:29:21;;;;;;;34.22;6.50;;;12.30;93.80;;;;;;5021636;28;20080;-77
2023/11/14 02:31:48;;;;;;;35.00;7.70;;;12.30;94.00;;;;;;5020816;28;20037;-79
2023/11/14 02:34:14;;;;;;;48.75;8.65;;;12.30;94.20;;;;;;5033487;28;20013;-78
2023/11/14 02:36:40;;;;;;;29.13;6.10;;;12.30;94.30;;;;;;5042455;28;20060;-76
2023/11/14 02:39:06;;;;;;;35.70;7.05;;;12.30;94.40;;;;;;5047507;28;20025;-78
2023/11/14 02:41:31;;;;;;;35.88;7.35;;;12.30;94.50;;;;;;5034316;28;20519;-74
2023/11/14 02:43:58;;;;;;;35.30;7.07;;;12.30;94.60;;;;;;5027440;28;20029;-76
2023/11/14 02:46:23;;;;;;;36.35;7.95;;;12.30;94.60;;;;;;5027371;28;20064;-74
2023/11/14 02:48:49;;;;;;;33.92;7.25;;;12.30;94.50;;;;;;5017933;28;20053;-76
2023/11/14 02:51:15;;;;;;;37.00;7.32;;;12.30;94.60;;;;;;5023555;28;20041;-79
2023/11/14 02:53:41;;;;;;;34.08;7.18;;;12.40;94.50;;;;;;5021205;28;20036;-76
2023/11/14 02:56:07;;;;;;;31.65;7.32;;;12.40;94.50;;;;;;5023160;28;20029;-74
2023/11/14 02:58:32;;;;;;;37.33;7.53;;;12.40;94.50;;;;;;5023896;28;20362;-76
2023/11/14 03:00:58;;;;;;;34.88;8.40;;;12.40;94.40;;;;;;5024280;28;20506;-79
2023/11/14 03:03:24;;;;;;;37.60;7.97;;;12.40;94.40;;;;;;5024605;28;20108;-78
2023/11/14 03:05:49;;;;;;;37.03;7.90;;;12.40;94.50;;;;;;5018517;28;20099;-77
2023/11/14 03:08:15;;;;;;;37.72;7.60;;;12.40;94.40;;;;;;5017114;28;20044;-74
2023/11/14 03:10:42;;;;;;;32.65;6.85;;;12.50;94.30;;;;;;5020849;28;20044;-76
2023/11/14 03:13:09;;;;;;;44.22;7.88;;;12.50;94.30;;;;;;5023074;28;20033;-74
2023/11/14 03:15:35;;;;;;;35.80;7.82;;;12.50;94.30;;;;;;5021217;28;20400;-76
2023/11/14 03:18:01;;;;;;;37.45;6.47;;;12.50;94.20;;;;;;5023006;28;20038;-78
2023/11/14 03:20:27;;;;;;;38.80;7.80;;;12.50;94.10;;;;;;5021425;28;20040;-76
2023/11/14 03:22:53;;;;;;;38.25;8.82;;;12.60;94.10;;;;;;5024671;28;20042;-79
2023/11/14 03:25:19;;;;;;;35.92;7.95;;;12.50;94.10;;;;;;5021488;28;20091;-76
2023/11/14 03:27:45;;;;;;;37.78;7.38;;;12.60;94.10;;;;;;5020756;28;20053;-75
2023/11/14 03:30:12;;;;;;;43.60;8.45;;;12.60;94.10;;;;;;5022153;28;20504;-75
2023/11/14 03:32:38;;;;;;;38.88;7.80;;;12.60;94.00;;;;;;5023617;28;20030;-75
2023/11/14 03:35:05;;;;;;;39.22;7.40;;;12.60;94.10;;;;;;5021827;28;20033;-74
2023/11/14 03:37:31;;;;;;;34.50;6.43;;;12.60;94.00;;;;;;5019170;28;20406;-79
2023/11/14 03:39:56;;;;;;;44.80;7.75;;;12.60;94.00;;;;;;5026985;28;20103;-76
2023/11/14 03:42:22;;;;;;;38.70;8.40;;;12.60;94.00;;;;;;5024448;28;20112;-76
2023/11/14 03:44:48;;;;;;;32.90;6.38;;;12.60;94.00;;;;;;5021786;28;20124;-80
2023/11/14 03:47:14;;;;;;;33.58;7.18;;;12.60;93.90;;;;;;5020186;28;20037;-76
2023/11/14 03:49:39;;;;;;;40.05;7.43;;;12.60;94.00;;;;;;5019440;28;20026;-77
2023/11/14 03:52:06;;;;;;;32.83;7.43;;;12.60;94.00;;;;;;5021819;28;20040;-77
2023/11/14 03:54:32;;;;;;;33.42;6.85;;;12.60;93.90;;;;;;5021904;28;20022;-76
2023/11/14 03:56:58;;;;;;;36.60;7.65;;;12.60;93.90;;;;;;5019579;28;20052;-81
2023/11/14 03:59:24;;;;;;;40.58;8.65;;;12.60;93.80;;;;;;5019541;28;20112;-77
2023/11/14 04:01:49;;;;;;;40.17;7.80;;;12.60;93.90;;;;;;5019773;28;20481;-77
2023/11/14 04:04:15;;;;;;;35.13;7.50;;;12.60;93.90;;;;;;5021952;28;20033;-79
2023/11/14 04:06:40;;;;;;;36.67;8.48;;;12.50;94.00;;;;;;5022293;28;20022;-76
2023/11/14 04:09:06;;;;;;;32.83;7.47;;;12.50;94.10;;;;;;5021416;28;20030;-79
2023/11/14 04:11:32;;;;;;;37.08;7.05;;;12.50;94.10;;;;;;5023141;28;20489;-76
2023/11/14 04:13:58;;;;;;;39.63;7.82;;;12.50;94.00;;;;;;5017930;28;20470;-76
2023/11/14 04:16:23;;;;;;;39.42;8.05;;;12.50;94.10;;;;;;5021084;28;20037;-78
2023/11/14 04:18:49;;;;;;;41.65;7.15;;;12.50;94.20;;;;;;5023743;28;20026;-76
2023/11/14 04:21:19;;;;;;;36.65;7.75;;;12.50;94.20;;;;;;5020517;28;20038;-76
2023/11/14 04:23:48;;;;;;;37.05;8.13;;;12.50;94.10;;;;;;5018238;28;20037;-78
2023/11/14 04:26:16;;;;;;;37.42;8.48;;;12.50;94.00;;;;;;5023889;28;20026;-79
2023/11/14 04:28:42;;;;;;;29.58;7.07;;;12.50;93.90;;;;;;5019941;28;20089;-76
2023/11/14 04:31:08;;;;;;;35.65;7.90;;;12.60;93.80;;;;;;5018800;28;20112;-76
2023/11/14 04:33:34;;;;;;;36.58;7.13;;;12.60;93.80;;;;;;5019442;28;20100;-76
2023/11/14 04:36:00;;;;;;;35.42;7.13;;;12.60;93.70;;;;;;5023645;28;20025;-77
2023/11/14 04:38:25;;;;;;;31.00;6.55;;;12.50;93.50;;;;;;5020025;28;20038;-79
2023/11/14 04:40:51;;;;;;;42.63;7.65;;;12.50;93.50;;;;;;5025270;28;20336;-77
2023/11/14 04:43:17;;;;;;;36.42;6.72;;;12.50;93.60;;;;;;5024451;28;20068;-74
2023/11/14 04:45:43;;;;;;;34.65;6.80;;;12.60;93.80;;;;;;5025384;28;20168;-75
2023/11/14 04:48:11;;;;;;;32.95;6.82;;;12.50;93.70;;;;;;5016358;28;20112;-74
2023/11/14 04:50:37;;;;;;;41.88;6.80;;;12.60;93.60;;;;;;5022041;28;20481;-76
2023/11/14 04:53:03;;;;;;;35.10;7.30;;;12.60;93.70;;;;;;5026072;28;20034;-77
2023/11/14 04:55:29;;;;;;;32.55;8.20;;;12.50;93.70;;;;;;5024279;28;20334;-77
2023/11/14 04:57:54;;;;;;;34.78;7.68;;;12.60;93.80;;;;;;5024962;28;20034;-81
2023/11/14 05:00:20;;;;;;;32.83;6.72;;;12.50;93.70;;;;;;5020601;28;20116;-76
2023/11/14 05:02:46;;;;;;;39.28;7.45;;;12.50;93.80;;;;;;5024220;28;20043;-76
2023/11/14 05:05:11;;;;;;;32.47;6.65;;;12.50;93.80;;;;;;5020264;28;20045;-80
2023/11/14 05:07:39;;;;;;;38.85;7.55;;;12.40;93.90;;;;;;5024700;28;20077;-75
2023/11/14 05:10:05;;;;;;;28.08;6.53;;;12.40;93.90;;;;;;5021745;28;20045;-75
2023/11/14 05:12:30;;;;;;;37.78;7.38;;;12.40;94.10;;;;;;5024588;28;20057;-75
2023/11/14 05:14:56;;;;;;;28.23;6.28;;;12.40;94.10;;;;;;5024678;28;20040;-76
2023/11/14 05:17:22;;;;;;;28.33;6.15;;;12.30;94.10;;;;;;5022764;28;20038;-79
2023/11/14 05:19:47;;;;;;;32.13;6.03;;;12.30;94.20;;;;;;5026483;28;20374;-75
2023/11/14 05:22:13;;;;;;;26.15;5.88;;;12.30;94.20;;;;;;5024185;28;20435;-75
2023/11/14 05:24:39;;;;;;;31.02;6.15;;;12.20;94.40;;;;;;5027870;28;20032;-78
2023/11/14 05:27:05;;;;;;;30.17;6.57;;;12.20;94.50;;;;;;5022343;28;20022;-75
2023/11/14 05:29:30;;;;;;;32.50;6.00;;;12.20;94.60;;;;;;5019968;28;20051;-80
2023/11/14 05:31:57;;;;;;;28.85;6.28;;;12.20;94.60;;;;;;5037849;28;20037;-76
2023/11/14 05:34:23;;;;;;;32.05;6.35;;;12.20;94.70;;;;;;5027142;28;20025;-75
2023/11/14 05:36:48;;;;;;;27.98;5.18;;;12.10;94.80;;;;;;5018255;28;20033;-79
2023/11/14 05:39:14;;;;;;;31.17;6.40;;;12.10;94.90;;;;;;5019456;28;20112;-76
2023/11/14 05:41:41;;;;;;;30.60;5.93;;;12.20;95.10;;;;;;5014532;28;20030;-79
2023/11/14 05:44:07;;;;;;;23.30;5.30;;;12.30;95.20;;;;;;5014354;28;20018;-78
2023/11/14 05:46:33;;;;;;;37.05;7.18;;;12.30;95.20;;;;;;5019533;28;20288;-78
2023/11/14 05:48:58;;;;;;;29.30;5.65;;;12.40;95.20;;;;;;5016069;28;20087;-82
2023/11/14 05:51:25;;;;;;;28.02;6.10;;;12.40;95.10;;;;;;5016079;28;20490;-78
2023/11/14 05:53:50;;;;;;;26.38;5.53;;;12.40;95.10;;;;;;5021466;28;20143;-75
2023/11/14 05:56:16;;;;;;;25.58;5.45;;;12.50;95.00;;;;;;5021264;28;20034;-75
2023/11/14 05:58:42;;;;;;;25.83;5.15;;;12.40;95.00;;;;;;5024557;28;20033;-75
2023/11/14 06:01:09;;;;;;;24.95;6.00;;;12.40;95.20;;;;;;5024807;28;20100;-73
2023/11/14 06:03:36;;;;;;;24.30;5.70;;;12.30;95.30;;;;;;5020957;28;20121;-76
2023/11/14 06:06:02;;;;;;;24.20;6.07;;;12.30;95.40;;;;;;5017297;28;20122;-74
2023/11/14 06:08:27;;;;;;;32.38;6.40;;;12.30;95.50;;;;;;5020024;28;20468;-77
2023/11/14 06:10:53;;;;;;;27.25;6.50;;;12.30;95.50;;;;;;5019605;28;20041;-79
2023/11/14 06:13:19;;;;;;;28.73;6.47;;;12.30;95.70;;;;;;5019849;28;20109;-74
2023/11/14 06:15:45;;;;;;;31.55;5.78;;;12.30;95.80;;;;;;5017924;28;20046;-74
2023/11/14 06:18:10;;;;;;;33.90;6.82;;;12.20;95.90;;;;;;5024275;28;20041;-81
2023/11/14 06:20:36;;;;;;;30.83;6.88;;;12.30;95.90;;;;;;5016010;28;20455;-80
2023/11/14 06:23:02;;;;;;;33.38;7.00;;;12.30;96.00;;;;;;5018158;28;20037;-81
2023/11/14 06:25:27;;;;;;;25.90;6.50;;;12.30;96.10;;;;;;5018807;28;20041;-77
2023/11/14 06:27:53;;;;;;;40.53;6.88;;;12.30;96.00;;;;;;5017172;28;20100;-75
2023/11/14 06:30:19;;;;;;;32.17;6.40;;;12.40;95.90;;;;;;5016318;28;20450;-78
2023/11/14 06:32:45;;;;;;;31.30;5.75;;;12.40;95.80;;;;;;5037004;28;20060;-74
2023/11/14 06:35:11;;;;;;;26.00;5.55;;;12.40;95.60;;;;;;5021953;28;20091;-76
2023/11/14 06:37:37;;;;;;;28.80;6.00;;;12.40;95.40;;;;;;5021316;28;20524;-78
2023/11/14 06:40:03;;;;;;;24.67;5.82;;;12.40;95.40;;;;;;5022237;28;20133;-76
2023/11/14 06:42:29;;;;;;;26.25;5.30;;;12.30;95.40;;;;;;5023169;28;20356;-79
2023/11/14 06:44:54;;;;;;;27.65;6.70;;;12.30;95.40;;;;;;5019849;28;20030;-77
2023/11/14 06:47:20;;;;;;;36.38;7.40;;;12.20;95.50;;;;;;5018275;28;20124;-76
2023/11/14 06:49:45;;;;;;;36.10;6.60;;;12.20;95.60;;;;;;5034160;28;20735;-79
2023/11/14 06:52:11;;;;;;;28.10;5.53;;;12.10;95.80;;;;;;5014129;28;20063;-75
2023/11/14 06:54:40;;;;;;;30.75;6.38;;;12.10;95.80;;;;;;5020117;28;20033;-77
2023/11/14 06:57:07;;;;;;;32.28;6.75;;;12.10;95.90;;;;;;5019470;28;20037;-74
2023/11/14 06:59:32;;;;;;;29.27;6.10;;;12.10;96.10;;;;;;5020870;28;20044;-74
2023/11/14 07:02:01;;;;;;;32.38;6.57;;;12.10;96.10;;;;;;5020309;28;20045;-74
2023/11/14 07:04:27;;;;;;;28.00;6.05;;;12.10;96.20;;;;;;5014942;28;20026;-74
2023/11/14 07:06:53;;;;;;;35.08;7.80;;;12.10;96.20;;;;;;5021882;28;20037;-74
2023/11/14 07:09:21;;;;;;;32.45;6.72;;;12.10;96.30;;;;;;5022888;28;20036;-74
2023/11/14 07:11:48;;;;;;;28.17;5.95;;;12.10;96.40;;;;;;5023248;28;20463;-74
2023/11/14 07:14:19;;;;;;;28.73;6.10;;;12.10;96.40;;;;;;5023669;28;20329;-75
2023/11/14 07:16:47;;;;;;;32.20;6.57;;;12.20;96.40;;;;;;5021172;28;20437;-74
2023/11/14 07:19:13;;;;;;;27.67;5.95;;;12.20;96.40;;;;;;5023023;28;20662;-75
2023/11/14 07:21:39;;;;;;;23.33;5.53;;;12.20;96.40;;;;;;5016621;28;20126;-74
2023/11/14 07:24:05;;;;;;;28.48;7.10;;;12.20;96.40;;;;;;5021337;28;20070;-73
2023/11/14 07:26:31;;;;;;;27.80;6.82;;;12.30;96.40;;;;;;5017445;28;20383;-76
2023/11/14 07:28:57;;;;;;;31.65;7.00;;;12.30;96.50;;;;;;5028372;28;20052;-75
2023/11/14 07:31:22;;;;;;;29.17;7.10;;;12.30;96.60;;;;;;5038001;28;20060;-75
2023/11/14 07:33:48;;;;;;;29.90;6.50;;;12.30;96.50;;;;;;5029580;28;20136;-76
2023/11/14 07:36:14;;;;;;;30.55;7.05;;;12.30;96.50;;;;;;5022068;28;20458;-75
2023/11/14 07:38:42;;;;;;;39.35;7.43;;;12.40;96.50;;;;;;5021078;28;20091;-76
2023/11/14 07:41:10;;;;;;;29.88;6.28;;;12.40;96.50;;;;;;5014937;28;20034;-76
2023/11/14 07:43:37;;;;;;;32.15;6.78;;;12.40;96.50;;;;;;5021397;28;20041;-75
2023/11/14 07:46:03;;;;;;;36.25;8.52;;;12.50;96.40;;;;;;5018401;28;20055;-77
2023/11/14 07:48:30;;;;;;;42.75;7.40;;;12.40;96.30;;;;;;5021538;28;20569;-76
2023/11/14 07:50:56;;;;;;;38.40;7.28;;;12.50;96.30;;;;;;5017573;28;20029;-75
2023/11/14 07:53:21;;;;;;;37.65;7.35;;;12.50;96.30;;;;;;5019119;28;20048;-76
2023/11/14 07:55:47;;;;;;;30.73;6.90;;;12.50;96.40;;;;;;5019784;28;20143;-77
2023/11/14 07:58:13;;;;;;;35.75;7.15;;;12.60;96.40;;;;;;5019259;28;20124;-75
2023/11/14 08:00:38;;;;;;;33.05;6.72;;;12.50;96.50;;;;;;5021107;28;20033;-79
2023/11/14 08:03:04;;;;;;;34.40;6.38;;;12.60;96.50;;;;;;5021899;28;20037;-75
2023/11/14 08:05:32;;;;;;;31.45;7.20;;;12.60;96.50;;;;;;5037937;28;20037;-76
2023/11/14 08:07:58;;;;;;;34.60;7.72;;;12.50;96.50;;;;;;5022246;28;20029;-75
2023/11/14 08:10:24;;;;;;;29.77;6.15;;;12.60;96.60;;;;;;5020716;28;20061;-74
2023/11/14 08:12:50;;;;;;;31.20;6.85;;;12.50;96.60;;;;;;5025219;28;20160;-76
2023/11/14 08:15:16;;;;;;;30.35;6.22;;;12.50;96.60;;;;;;5025954;28;20399;-76
2023/11/14 08:17:42;;;;;;;35.03;6.55;;;12.60;96.60;;;;;;5024143;28;20045;-74
2023/11/14 08:20:10;;;;;;;38.22;7.22;;;12.50;96.50;;;;;;5023482;28;20055;-73
2023/11/14 08:22:35;;;;;;;36.22;7.57;;;12.50;96.70;;;;;;5024890;28;20422;-76
2023/11/14 08:25:02;;;;;;;31.85;6.93;;;12.50;96.70;;;;;;5025594;28;20121;-75
2023/11/14 08:27:31;;;;;;;31.98;7.13;;;12.30;96.80;;;;;;5024030;28;20067;-74
2023/11/14 08:29:57;;;;;;;30.92;7.38;;;12.40;96.90;;;;;;5024431;28;20100;-75
2023/11/14 08:32:23;;;;;;;32.70;7.28;;;12.30;97.00;;;;;;5025058;28;20029;-73
2023/11/14 08:34:49;;;;;;;30.95;7.25;;;12.30;97.10;;;;;;5023449;28;20045;-74
2023/11/14 08:37:15;;;;;;;34.05;7.07;;;12.30;97.20;;;;;;5022517;28;20117;-74
2023/11/14 08:39:41;;;;;;;25.60;6.90;;;12.20;97.20;;;;;;5025744;28;20100;-76
2023/11/14 08:42:11;;;;;;;20.35;4.68;;;12.20;97.20;;;;;;5024469;28;20040;-74
2023/11/14 08:44:38;;;;;;;15.48;5.13;;;12.10;97.10;;;;;;5029316;28;20018;-75
2023/11/14 08:47:04;;;;;;;13.15;4.07;;;12.10;96.70;;;;;;5019645;28;20072;-76
2023/11/14 08:49:30;;;;;;;14.68;4.20;;;12.10;96.30;;;;;;5025991;28;20033;-75
2023/11/14 08:51:56;;;;;;;13.68;3.40;;;12.00;96.20;;;;;;5023909;28;20406;-75
2023/11/14 08:54:21;;;;;;;9.95;3.10;;;11.90;96.00;;;;;;5026053;28;20032;-76
2023/11/14 08:56:47;;;;;;;14.63;3.97;;;11.90;95.90;;;;;;5018170;28;20041;-75
2023/11/14 08:59:15;;;;;;;11.18;2.45;;;12.00;96.00;;;;;;5021894;28;20074;-75
2023/11/14 09:01:41;;;;;;;13.90;2.60;;;12.10;96.40;;;;;;5022724;28;20120;-76
2023/11/14 09:04:10;;;;;;;8.43;2.45;;;12.10;96.60;;;;;;5026331;28;20029;-74
2023/11/14 09:06:36;;;;;;;14.98;4.22;;;12.10;96.70;;;;;;5023741;28;20459;-75
2023/11/14 09:09:02;;;;;;;21.95;5.68;;;12.10;96.90;;;;;;5024001;28;20044;-75
2023/11/14 09:11:29;;;;;;;17.25;6.15;;;12.10;97.10;;;;;;5021867;28;20033;-75
2023/11/14 09:13:56;;;;;;;20.38;6.53;;;12.10;97.00;;;;;;5019986;28;20026;-75
2023/11/14 09:16:23;;;;;;;18.60;6.22;;;12.10;97.00;;;;;;5023579;28;20041;-78
2023/11/14 09:18:49;;;;;;;15.98;5.43;;;12.10;97.10;;;;;;5023485;28;20967;-74
2023/11/14 09:21:15;;;;;;;14.32;4.30;;;12.00;97.20;;;;;;5022365;28;20041;-77
2023/11/14 09:23:40;;;;;;;17.00;4.95;;;12.00;97.30;;;;;;5023175;28;20140;-76
2023/11/14 09:26:08;;;;;;;15.07;4.95;;;12.00;97.30;;;;;;5024226;28;20029;-75
2023/11/14 09:28:35;;;;;;;16.65;4.95;;;11.90;97.40;;;;;;5023096;28;20103;-74
2023/11/14 09:31:02;;;;;;;13.48;4.03;;;11.90;97.50;;;;;;5022793;28;20026;-75
2023/11/14 09:33:29;;;;;;;16.15;3.83;;;11.80;97.40;;;;;;5024486;28;20560;-75
2023/11/14 09:35:56;;;;;;;14.45;3.65;;;11.80;97.50;;;;;;5025124;28;20387;-75
2023/11/14 09:38:22;;;;;;;14.68;4.13;;;11.90;97.60;;;;;;5024851;28;20427;-75
2023/11/14 09:40:48;;;;;;;15.20;3.95;;;11.90;97.60;;;;;;5019649;28;20129;-74
2023/11/14 09:43:16;;;;;;;17.63;4.07;;;11.90;97.70;;;;;;5024506;28;20054;-77
2023/11/14 09:45:43;;;;;;;13.80;4.25;;;11.90;97.70;;;;;;5021587;28;20121;-76
2023/11/14 09:48:10;;;;;;;16.38;4.85;;;12.00;97.70;;;;;;5019869;28;20038;-75
2023/11/14 09:50:40;;;;;;;16.90;5.97;;;12.00;97.80;;;;;;5022175;28;20041;-76
2023/11/14 09:53:06;;;;;;;17.20;7.65;;;12.00;97.80;;;;;;5023059;28;20079;-75
2023/11/14 09:55:35;;;;;;;17.98;7.05;;;12.00;97.80;;;;;;5023217;28;20532;-73
2023/11/14 09:58:02;;;;;;;20.92;7.10;;;12.00;97.90;;;;;;5022747;28;20045;-73
2023/11/14 10:00:29;;;;;;;15.65;6.00;;;12.00;97.90;;;;;;5024522;28;20391;-74
2023/11/14 10:02:56;;;;;;;16.25;6.15;;;12.00;98.00;;;;;;5022200;28;20029;-76
2023/11/14 10:05:22;;;;;;;24.88;12.32;;;12.10;98.00;;;;;;5025069;28;20044;-76
2023/11/14 10:07:49;;;;;;;20.83;10.93;;;12.10;98.10;;;;;;5017916;28;20759;-75
2023/11/14 10:10:16;;;;;;;28.63;18.40;;;12.00;98.10;;;;;;5024858;28;20049;-75
2023/11/14 10:12:42;;;;;;;28.15;14.55;;;12.10;98.10;;;;;;5023147;28;20640;-74
2023/11/14 10:15:09;;;;;;;23.45;8.70;;;12.10;98.20;;;;;;5021464;28;20037;-74
2023/11/14 10:17:46;;;;;;;35.67;14.93;;;12.10;98.20;;;;;;5019609;28;20961;-74
2023/11/14 10:20:13;;;;;;;28.05;13.48;;;12.10;98.20;;;;;;5022206;28;20091;-75
2023/11/14 10:22:50;;;;;;;37.85;11.15;;;12.10;98.20;;;;;;5022316;28;20038;-77
2023/11/14 10:25:32;;;;;;;53.15;27.70;;;12.10;98.20;;;;;;5021719;28;20486;-76
2023/11/14 10:28:05;;;;;;;64.93;41.03;;;12.20;98.20;;;;;;5021888;28;20029;-76
2023/11/14 10:30:45;;;;;;;51.03;23.92;;;12.20;98.10;;;;;;5022256;28;20041;-78
2023/11/14 10:33:14;;;;;;;31.88;12.80;;;12.20;98.10;;;;;;5020166;28;20033;-76
2023/11/14 10:35:41;;;;;;;30.65;12.27;;;12.10;98.00;;;;;;5023951;28;20536;-77
2023/11/14 10:38:20;;;;;;;26.92;9.68;;;12.20;97.90;;;;;;5023516;28;20175;-75
2023/11/14 10:40:47;;;;;;;32.35;7.47;;;12.20;97.80;;;;;;5034973;28;20391;-75
2023/11/14 10:43:24;;;;;;;28.45;8.20;;;12.20;97.90;;;;;;5019065;28;20133;-77
2023/11/14 10:45:50;;;;;;;25.27;6.93;;;12.30;97.90;;;;;;5014361;28;20494;-75
2023/11/14 10:48:22;;;;;;;35.55;8.52;;;12.40;97.90;;;;;;5018286;28;20060;-76
2023/11/14 10:50:49;;;;;;;28.23;8.27;;;12.50;97.80;;;;;;5018421;28;20042;-74
2023/11/14 10:53:16;;;;;;;29.45;7.35;;;12.60;97.60;;;;;;5018588;28;20050;-75
2023/11/14 10:55:44;;;;;;;28.52;6.85;;;12.60;97.50;;;;;;5033959;28;20492;-76
2023/11/14 10:58:12;;;;;;;27.92;7.43;;;12.60;97.20;;;;;;5022748;28;20530;-76
2023/11/14 11:00:38;;;;;;;30.63;7.45;;;12.60;97.10;;;;;;5022362;28;20029;-77
2023/11/14 11:03:05;;;;;;;28.83;6.82;;;12.60;97.10;;;;;;5020947;28;20029;-75
2023/11/14 11:05:32;;;;;;;31.33;9.05;;;12.60;97.10;;;;;;5021910;28;20662;-75
2023/11/14 11:08:02;;;;;;;25.00;6.43;;;12.50;97.10;;;;;;5021792;28;20445;-75
2023/11/14 11:10:32;;;;;;;35.20;7.97;;;12.50;97.30;;;;;;5021720;28;20544;-77
2023/11/14 11:13:03;;;;;;;29.73;8.30;;;12.40;97.30;;;;;;5019892;28;20042;-75
2023/11/14 11:15:29;;;;;;;32.65;7.45;;;12.40;97.40;;;;;;5024036;28;20482;-76
2023/11/14 11:18:01;;;;;;;27.98;7.25;;;12.40;97.40;;;;;;5015729;28;20124;-75
2023/11/14 11:20:27;;;;;;;31.08;6.57;;;12.40;97.50;;;;;;5023880;28;20129;-77
2023/11/14 11:23:13;;;;;;;26.50;7.05;;;12.40;97.50;;;;;;5022874;28;20128;-75
2023/11/14 11:25:41;;;;;;;29.02;7.75;;;12.30;97.50;;;;;;5022065;28;20041;-78
2023/11/14 11:28:22;;;;;;;24.80;7.03;;;12.40;97.50;;;;;;5023349;28;20029;-75
2023/11/14 11:31:24;;;;;;;26.58;7.18;;;12.30;97.60;;;;;;5019878;28;20283;-75
2023/11/14 11:33:50;;;;;;;30.63;8.02;;;12.30;97.60;;;;;;4975850;28;20120;-76
2023/11/14 11:36:23;;;;;;;24.10;6.60;;;12.20;97.60;;;;;;5020684;28;20045;-76
2023/11/14 11:39:03;;;;;;;24.92;6.50;;;12.30;97.70;;;;;;5021540;28;20025;-77
2023/11/14 11:41:32;;;;;;;24.75;6.32;;;12.20;97.70;;;;;;5016594;28;20124;-75
2023/11/14 11:44:12;;;;;;;22.98;5.97;;;12.20;97.70;;;;;;5020473;28;20429;-76
2023/11/14 11:46:45;;;;;;;24.42;5.32;;;12.20;97.70;;;;;;5022809;28;20041;-76
2023/11/14 11:49:16;;;;;;;20.80;6.53;;;12.10;97.40;;;;;;5024789;28;20032;-76
2023/11/14 11:51:49;;;;;;;20.38;5.32;;;12.10;97.30;;;;;;5024361;28;20299;-75
2023/11/14 11:54:27;;;;;;;22.67;5.63;;;12.00;97.20;;;;;;5026486;28;20040;-77
2023/11/14 11:57:05;;;;;;;18.05;4.22;;;12.00;97.10;;;;;;5021900;28;20041;-76
2023/11/14 11:59:54;;;;;;;15.45;3.72;;;11.90;97.00;;;;;;5025774;28;20025;-78
2023/11/14 12:02:23;;;;;;;17.38;5.32;;;11.90;96.80;;;;;;5001257;28;20029;-76
2023/11/14 12:04:52;;;;;;;17.38;5.00;;;11.80;96.80;;;;;;5022573;28;20434;-77
2023/11/14 12:07:18;;;;;;;15.93;5.13;;;11.80;97.00;;;;;;5023469;28;20037;-75
2023/11/14 12:09:47;;;;;;;15.50;4.53;;;11.80;97.00;;;;;;5027376;28;20061;-76
2023/11/14 12:12:16;;;;;;;17.33;5.28;;;11.80;97.00;;;;;;5019673;28;20041;-76
2023/11/14 12:14:42;;;;;;;15.57;4.32;;;11.90;97.20;;;;;;5026165;28;20478;-76
2023/11/14 12:17:08;;;;;;;14.90;4.13;;;11.90;97.30;;;;;;5022677;28;20040;-76
2023/11/14 12:19:34;;;;;;;13.43;4.32;;;11.90;97.20;;;;;;5026059;28;20028;-75
2023/11/14 12:22:05;;;;;;;15.25;4.47;;;11.80;97.20;;;;;;5023599;28;20509;-77
2023/11/14 12:24:31;;;;;;;12.95;5.00;;;11.90;97.30;;;;;;5025880;28;20408;-78
2023/11/14 12:26:57;;;;;;;18.35;5.82;;;11.90;97.40;;;;;;5025030;28;20029;-76
2023/11/14 12:29:23;;;;;;;18.58;5.20;;;11.90;97.40;;;;;;5038174;28;20042;-76
2023/11/14 12:31:52;;;;;;;17.08;5.72;;;11.80;97.50;;;;;;5042000;28;20041;-76
2023/11/14 12:34:29;;;;;;;15.32;4.22;;;11.80;97.40;;;;;;5047338;28;20021;-78